Terminal Aerodrome Forecast
Issued by NWS

Home | Current Version | Previous Version | Graphics & Text | Print | Product List | Glossary On
Versions: 1 2 3 4 5 6 7 8 9 10 11 12 13 14 15
455
FTUS43 KMPX 310339 AAA
TAFRWF
TAF AMD
KRWF 310339Z 3104/3124 14008KT P6SM VCTS OVC080CB
      TEMPO 3104/3107 3SM TSRA OVC060CB
     FM310800 16010KT P6SM VCSH BKN040
     FM311200 22008KT P6SM SCT020 BKN050=

USA.gov is the U.S. government's official web portal to all federal, state and local government web resources and services.